Terminal Aerodrome Forecast
Issued by NWS Dodge City, KS

Home | Current Version | Previous Version | Text Only | Print | Product List | Glossary On
Versions: 1 2 3 4 5 6 7 8 9 10 11 12 13 14 15 16 17 18 19
000
FTUS43 KDDC 192320
TAFDDC
TAF
KDDC 192320Z 2000/2024 19013G23KT P6SM SKC
     FM200600 18012G22KT P6SM SKC WS020/20040KT
     FM201200 20010G20KT P6SM SKC
     FM201500 20017G27KT P6SM SKC
     FM201800 20018G28KT P6SM SCT070=

USA.gov is the U.S. government's official web portal to all federal, state and local government web resources and services.